createdAt,value
2018-11-23T00:00:26.199Z,97885.66
2018-11-23T00:02:55.409Z,97881.08
2018-11-23T00:05:23.990Z,97887.30
2018-11-23T00:07:52.935Z,97890.17
2018-11-23T00:10:22.648Z,97893.92
2018-11-23T00:12:51.370Z,97899.75
2018-11-23T00:15:21.993Z,97906.31
2018-11-23T00:17:50.560Z,97899.98
2018-11-23T00:20:20.580Z,97898.55
2018-11-23T00:22:49.407Z,97898.16
2018-11-23T00:25:19.073Z,97893.89
2018-11-23T00:27:48.043Z,97897.94
2018-11-23T00:30:19.699Z,97894.38
2018-11-23T00:32:48.622Z,97898.45
2018-11-23T00:35:19.311Z,97903.25
2018-11-23T00:37:49.535Z,97894.09
2018-11-23T00:40:20.524Z,97896.39
2018-11-23T00:42:49.657Z,97896.72
2018-11-23T00:45:18.867Z,97893.73
2018-11-23T00:47:49.217Z,97888.81
2018-11-23T00:50:19.041Z,97882.73
2018-11-23T00:52:48.671Z,97883.97
2018-11-23T00:55:19.101Z,97882.50
2018-11-23T00:57:47.834Z,97885.91
2018-11-23T01:00:24.247Z,97894.77
2018-11-23T01:02:53.547Z,97891.19
2018-11-23T01:05:22.518Z,97896.55
2018-11-23T01:07:51.455Z,97890.34
2018-11-23T01:10:21.348Z,97887.85
2018-11-23T01:12:51.326Z,97895.30
2018-11-23T01:15:20.029Z,97894.77
2018-11-23T01:17:48.788Z,97905.59
2018-11-23T01:20:21.144Z,97900.44
2018-11-23T01:22:50.356Z,97900.02
2018-11-23T01:25:20.142Z,97888.52
2018-11-23T01:27:49.846Z,97889.18
2018-11-23T01:30:21.477Z,97895.36
2018-11-23T01:32:50.085Z,96946.78
2018-11-23T01:35:18.644Z,97886.00
2018-11-23T01:37:47.278Z,97886.00
2018-11-23T01:40:18.172Z,97892.88
2018-11-23T01:42:47.094Z,97891.47
2018-11-23T01:45:16.059Z,97886.19
2018-11-23T01:47:44.593Z,97885.77
2018-11-23T01:50:16.474Z,97887.39
2018-11-23T01:52:46.197Z,97894.84
2018-11-23T01:55:15.459Z,97884.33
2018-11-23T01:57:45.382Z,97882.89
2018-11-23T02:00:16.194Z,97886.47
2018-11-23T02:02:45.239Z,97877.73
2018-11-23T02:05:13.726Z,97879.32
2018-11-23T02:07:42.188Z,97884.69
2018-11-23T02:10:12.222Z,97890.65
2018-11-23T02:12:41.077Z,97886.50
2018-11-23T02:15:13.823Z,97883.11
2018-11-23T02:17:42.458Z,97877.52
2018-11-23T02:20:12.303Z,97875.87
2018-11-23T02:22:40.835Z,97870.48
2018-11-23T02:25:09.452Z,97870.13
2018-11-23T02:27:38.028Z,97871.19
2018-11-23T02:30:17.396Z,97878.12
2018-11-23T02:32:45.933Z,97878.41
2018-11-23T02:35:15.206Z,97884.97
2018-11-23T02:37:43.778Z,97882.13
2018-11-23T02:40:13.577Z,97886.73
2018-11-23T02:42:42.692Z,97889.23
2018-11-23T02:45:13.679Z,97890.53
2018-11-23T02:47:43.038Z,97889.02
2018-11-23T02:50:11.505Z,97888.34
2018-11-23T02:52:40.803Z,97891.45
2018-11-23T02:55:10.294Z,97895.30
2018-11-23T02:57:38.912Z,97896.70
2018-11-23T03:00:13.461Z,97895.03
2018-11-23T03:02:42.326Z,97895.03
2018-11-23T03:05:12.671Z,97898.44
2018-11-23T03:07:41.531Z,97895.94
2018-11-23T03:10:11.024Z,97892.06
2018-11-23T03:12:40.156Z,97887.38
2018-11-23T03:15:10.191Z,97890.69
2018-11-23T03:17:38.806Z,97892.28
2018-11-23T03:20:09.719Z,97889.09
2018-11-23T03:22:38.376Z,97889.50
2018-11-23T03:25:07.302Z,97890.88
2018-11-23T03:27:35.912Z,97882.73
2018-11-23T03:30:05.291Z,97886.80
2018-11-23T03:32:33.859Z,97888.36
2018-11-23T03:35:02.429Z,97889.92
2018-11-23T03:37:31.004Z,97885.66
2018-11-23T03:39:59.588Z,97889.41
2018-11-23T03:42:28.180Z,97887.78
2018-11-23T03:44:56.716Z,97885.72
2018-11-23T03:47:25.275Z,97890.73
2018-11-23T03:49:53.965Z,97892.25
2018-11-23T03:52:22.553Z,97894.23
2018-11-23T03:54:51.164Z,97897.42
2018-11-23T03:57:19.842Z,97892.06
2018-11-23T03:59:48.401Z,97892.80
2018-11-23T04:02:17.042Z,97895.28
2018-11-23T04:04:45.689Z,97895.50
2018-11-23T04:07:14.284Z,97898.66
2018-11-23T04:09:42.856Z,97898.94
2018-11-23T04:12:11.440Z,97899.79
2018-11-23T04:14:39.997Z,97900.61
2018-11-23T04:17:08.568Z,97901.19
2018-11-23T04:19:37.107Z,97905.08
2018-11-23T04:22:05.795Z,97908.73
2018-11-23T04:24:34.355Z,97907.13
2018-11-23T04:27:02.991Z,97908.18
2018-11-23T04:29:31.546Z,97909.27
2018-11-23T04:32:00.068Z,97903.98
2018-11-23T04:34:28.791Z,97903.76
2018-11-23T04:36:57.859Z,97903.25
2018-11-23T04:39:26.409Z,97903.76
2018-11-23T04:41:54.938Z,97905.77
2018-11-23T04:44:23.483Z,97899.63
2018-11-23T04:46:52.108Z,97904.06
2018-11-23T04:49:20.704Z,97902.39
2018-11-23T04:51:49.272Z,97903.86
2018-11-23T04:54:17.788Z,97909.76
2018-11-23T04:56:46.393Z,97917.14
2018-11-23T04:59:14.968Z,97919.40
2018-11-23T05:01:43.614Z,97922.48
2018-11-23T05:04:12.270Z,97924.55
2018-11-23T05:06:40.859Z,97920.49
2018-11-23T05:09:10.303Z,97925.94
2018-11-23T05:11:39.276Z,97921.78
2018-11-23T05:14:08.241Z,97931.06
2018-11-23T05:16:36.807Z,97929.24
2018-11-23T05:19:05.771Z,97931.69
2018-11-23T05:21:34.400Z,97925.63
2018-11-23T05:24:03.135Z,97925.63
2018-11-23T05:26:31.840Z,97918.48
2018-11-23T05:29:00.481Z,97921.39
2018-11-23T05:31:29.279Z,97917.59
2018-11-23T05:33:57.852Z,97920.39
2018-11-23T05:36:26.400Z,97925.89
2018-11-23T05:38:54.941Z,97924.58
2018-11-23T05:41:23.496Z,97921.38
2018-11-23T05:43:52.023Z,97923.36
2018-11-23T05:46:20.661Z,97911.17
2018-11-23T05:48:49.368Z,97914.28
2018-11-23T05:51:17.898Z,97915.48
2018-11-23T05:53:46.602Z,97917.23
2018-11-23T05:56:15.563Z,97911.36
2018-11-23T05:58:44.435Z,97916.73
2018-11-23T06:01:13.289Z,97912.30
2018-11-23T06:03:41.953Z,97909.97
2018-11-23T06:06:10.829Z,97914.87
2018-11-23T06:08:39.575Z,97920.14
2018-11-23T06:11:08.395Z,97922.05
2018-11-23T06:13:37.246Z,97917.85
2018-11-23T06:16:06.239Z,97916.03
2018-11-23T06:18:34.963Z,97876.59
2018-11-23T06:21:04.753Z,97910.36
2018-11-23T06:23:33.320Z,97910.20
2018-11-23T06:26:35.110Z,97900.10
2018-11-23T06:29:03.794Z,97902.44
2018-11-23T06:31:32.353Z,97899.98
2018-11-23T06:34:00.904Z,97900.34
2018-11-23T06:36:29.431Z,97909.66
2018-11-23T06:38:58.161Z,97909.80
2018-11-23T06:41:26.776Z,97916.88
2018-11-23T06:43:55.444Z,97914.23
2018-11-23T06:46:23.990Z,97914.70
2018-11-23T06:48:52.624Z,97920.53
2018-11-23T06:51:21.212Z,97911.67
2018-11-23T06:53:49.760Z,97915.63
2018-11-23T06:56:18.380Z,97911.95
2018-11-23T06:58:46.956Z,97918.83
2018-11-23T07:01:15.522Z,97920.81
2018-11-23T07:03:44.113Z,97931.80
2018-11-23T07:06:12.683Z,97933.91
2018-11-23T07:08:41.265Z,97931.64
2018-11-23T07:11:09.882Z,97931.09
2018-11-23T07:13:38.455Z,97924.51
2018-11-23T07:16:07.052Z,97917.91
2018-11-23T07:18:35.640Z,97914.10
2018-11-23T07:21:04.256Z,97904.86
2018-11-23T07:23:32.826Z,97913.17
2018-11-23T07:26:01.470Z,97904.47
2018-11-23T07:28:30.077Z,97917.25
2018-11-23T07:31:02.525Z,97911.93
2018-11-23T07:33:27.966Z,97910.72
2018-11-23T07:35:56.572Z,97905.56
2018-11-23T07:38:25.295Z,97911.30
2018-11-23T07:41:04.884Z,97914.61
2018-11-23T07:43:33.601Z,97927.00
2018-11-23T07:46:02.310Z,97934.45
2018-11-23T07:48:30.859Z,97932.63
2018-11-23T07:50:59.557Z,97930.11
2018-11-23T07:53:28.223Z,97928.77
2018-11-23T07:55:57.132Z,97921.94
2018-11-23T07:58:25.850Z,97920.81
2018-11-23T08:00:54.483Z,97919.14
2018-11-23T08:03:23.112Z,97920.03
2018-11-23T08:05:51.676Z,97922.48
2018-11-23T08:08:20.287Z,97923.25
2018-11-23T08:10:48.018Z,97925.83
2018-11-23T08:13:16.602Z,97924.23
2018-11-23T08:15:45.163Z,97928.85
2018-11-23T08:18:13.734Z,97928.77
2018-11-23T08:20:42.388Z,97932.58
2018-11-23T08:23:10.996Z,97925.90
2018-11-23T08:25:39.589Z,97924.08
2018-11-23T08:28:08.277Z,97924.58
2018-11-23T08:30:36.988Z,97926.29
2018-11-23T08:33:05.717Z,97928.27
2018-11-23T08:35:34.329Z,97926.67
2018-11-23T08:38:02.956Z,97924.19
2018-11-23T08:40:31.524Z,97918.75
2018-11-23T08:43:00.085Z,97916.97
2018-11-23T08:45:28.732Z,97929.01
2018-11-23T08:47:57.919Z,97912.41
2018-11-23T08:50:28.735Z,97918.32
2018-11-23T08:52:57.402Z,97913.23
2018-11-23T08:55:26.213Z,97912.83
2018-11-23T08:57:54.821Z,97908.88
2018-11-23T09:00:29.670Z,97914.78
2018-11-23T09:03:00.605Z,97922.87
2018-11-23T09:05:29.184Z,97921.12
2018-11-23T09:07:58.544Z,97915.05
2018-11-23T09:10:29.658Z,97925.31
2018-11-23T09:13:00.823Z,97923.44
2018-11-23T09:15:29.390Z,97920.95
2018-11-23T09:17:58.020Z,97923.48
2018-11-23T09:20:28.059Z,97912.87
2018-11-23T09:22:56.669Z,97909.50
2018-11-23T09:25:25.489Z,97906.16
2018-11-23T09:27:54.203Z,97907.75
2018-11-23T09:30:25.331Z,97899.05
2018-11-23T09:32:54.943Z,97897.60
2018-11-23T09:35:26.528Z,97888.27
2018-11-23T09:37:55.191Z,97881.11
2018-11-23T09:40:25.391Z,97878.23
2018-11-23T09:42:54.458Z,97879.12
2018-11-23T09:45:25.762Z,97880.04
2018-11-23T09:47:55.784Z,97874.17
2018-11-23T09:50:25.214Z,97877.35
2018-11-23T09:52:56.408Z,97884.72
2018-11-23T09:55:25.731Z,97897.07
2018-11-23T09:57:54.251Z,97894.97
2018-11-23T10:00:28.177Z,97882.02
2018-11-23T10:02:57.454Z,97884.27
2018-11-23T10:05:26.817Z,97883.91
2018-11-23T10:07:57.817Z,97889.59
2018-11-23T10:10:27.060Z,97880.05
2018-11-23T10:12:56.745Z,97883.83
2018-11-23T10:15:26.619Z,97894.36
2018-11-23T10:17:55.198Z,97898.34
2018-11-23T10:20:26.042Z,97896.32
2018-11-23T10:22:54.663Z,97898.27
2018-11-23T10:25:28.528Z,97885.27
2018-11-23T10:27:57.192Z,97873.97
2018-11-23T10:30:28.056Z,97872.08
2018-11-23T10:32:58.039Z,97876.64
2018-11-23T10:35:26.830Z,97868.22
2018-11-23T10:37:56.669Z,97858.59
2018-11-23T10:40:26.792Z,97853.00
2018-11-23T10:42:55.312Z,97853.00
2018-11-23T10:45:25.395Z,97848.49
2018-11-23T10:47:54.638Z,97847.40
2018-11-23T10:50:24.804Z,97844.48
2018-11-23T10:52:53.325Z,97836.53
2018-11-23T10:55:24.195Z,97826.98
2018-11-23T10:57:52.737Z,97821.63
2018-11-23T11:00:26.395Z,97242.67
2018-11-23T11:03:00.680Z,97818.38
2018-11-23T11:05:30.300Z,97808.83
2018-11-23T11:08:02.315Z,97809.83
2018-11-23T11:10:30.828Z,97798.03
2018-11-23T11:12:59.370Z,97795.63
2018-11-23T11:15:27.923Z,97791.30
2018-11-23T11:17:56.428Z,97786.56
2018-11-23T11:20:25.060Z,97787.30
2018-11-23T11:22:53.603Z,97784.02
2018-11-23T11:25:22.153Z,97781.58
2018-11-23T11:27:50.739Z,97775.64
2018-11-23T11:30:19.956Z,97774.16
2018-11-23T11:32:49.270Z,97781.86
2018-11-23T11:35:17.805Z,97778.48
2018-11-23T11:37:46.372Z,97767.14
2018-11-23T11:40:16.568Z,97762.67
2018-11-23T11:42:45.547Z,97763.56
2018-11-23T11:45:15.446Z,97765.31
2018-11-23T11:47:44.685Z,97771.68
2018-11-23T11:50:13.687Z,97774.91
2018-11-23T11:52:43.573Z,97772.57
2018-11-23T11:55:15.020Z,97759.38
2018-11-23T11:57:44.206Z,97757.48
2018-11-23T12:00:17.318Z,97754.69
2018-11-23T12:02:45.944Z,97755.47
2018-11-23T12:05:14.779Z,97754.48
2018-11-23T12:07:43.298Z,97746.72
2018-11-23T12:10:15.530Z,97729.75
2018-11-23T12:12:44.372Z,97727.82
2018-11-23T12:15:13.641Z,97735.96
2018-11-23T12:17:42.425Z,97734.34
2018-11-23T12:20:15.142Z,97714.10
2018-11-23T12:22:43.787Z,97716.19
2018-11-23T12:25:12.408Z,97716.11
2018-11-23T12:27:40.999Z,97714.46
2018-11-23T12:30:12.243Z,97709.80
2018-11-23T12:32:41.359Z,97707.08
2018-11-23T12:35:11.191Z,97714.13
2018-11-23T12:37:39.909Z,97712.05
2018-11-23T12:40:10.242Z,97708.25
2018-11-23T12:42:38.775Z,97710.63
2018-11-23T12:45:08.931Z,97703.18
2018-11-23T12:47:37.453Z,97700.55
2018-11-23T12:50:08.556Z,97697.59
2018-11-23T12:52:37.050Z,97696.20
2018-11-23T12:55:06.486Z,97691.08
2018-11-23T12:57:34.992Z,97690.19
2018-11-23T13:00:03.665Z,97685.88
2018-11-23T13:02:32.156Z,97680.66
2018-11-23T13:05:00.683Z,97678.98
2018-11-23T13:07:29.255Z,97673.66
2018-11-23T13:09:57.775Z,97663.41
2018-11-23T13:12:26.281Z,97661.87
2018-11-23T13:14:54.978Z,97660.67
2018-11-23T13:17:23.728Z,97660.73
2018-11-23T13:19:52.243Z,97659.88
2018-11-23T13:22:20.949Z,97657.30
2018-11-23T13:24:49.449Z,97659.23
2018-11-23T13:27:18.488Z,97653.32
2018-11-23T13:29:47.915Z,97652.97
2018-11-23T13:32:16.909Z,97661.58
2018-11-23T13:34:45.446Z,97672.41
2018-11-23T13:37:13.952Z,97669.58
2018-11-23T13:39:42.848Z,97674.46
2018-11-23T13:42:11.375Z,97676.14
2018-11-23T13:44:39.911Z,97672.16
2018-11-23T13:47:08.402Z,97663.36
2018-11-23T13:49:36.924Z,97664.16
2018-11-23T13:52:05.448Z,97660.92
2018-11-23T13:54:33.942Z,97652.22
2018-11-23T13:57:02.448Z,97653.55
2018-11-23T13:59:30.949Z,97646.59
2018-11-23T14:01:59.473Z,97650.77
2018-11-23T14:04:27.991Z,97647.05
2018-11-23T14:06:56.483Z,97647.98
2018-11-23T14:09:25.007Z,97635.77
2018-11-23T14:11:53.535Z,97633.52
2018-11-23T14:14:22.077Z,97628.24
2018-11-23T14:16:50.676Z,97625.22
2018-11-23T14:19:19.183Z,97612.73
2018-11-23T14:21:47.744Z,97612.73
2018-11-23T14:24:16.294Z,97616.81
2018-11-23T14:26:44.822Z,97632.07
2018-11-23T14:29:13.320Z,97615.07
2018-11-23T14:31:41.832Z,97612.15
2018-11-23T14:34:10.350Z,97627.20
2018-11-23T14:36:38.878Z,97605.16
2018-11-23T14:39:08.789Z,97602.16
2018-11-23T14:41:37.508Z,97593.68
2018-11-23T14:44:07.014Z,97592.98
2018-11-23T14:46:34.564Z,97591.44
2018-11-23T14:49:03.073Z,97595.56
2018-11-23T14:51:31.567Z,97587.11
2018-11-23T14:54:00.121Z,97593.22
2018-11-23T14:56:28.610Z,97588.23
2018-11-23T14:58:57.087Z,97590.33
2018-11-23T15:01:26.020Z,97589.62
2018-11-23T15:03:54.522Z,97592.81
2018-11-23T15:06:23.016Z,97593.75
2018-11-23T15:08:51.602Z,97596.77
2018-11-23T15:11:20.107Z,97599.41
2018-11-23T15:13:48.607Z,97592.52
2018-11-23T15:16:17.092Z,97590.77
2018-11-23T15:18:45.597Z,97589.68
2018-11-23T15:21:14.096Z,97588.48
2018-11-23T15:23:42.649Z,97590.62
2018-11-23T15:26:11.166Z,97588.48
2018-11-23T15:28:39.673Z,97585.45
2018-11-23T15:31:08.162Z,97582.81
2018-11-23T15:33:36.671Z,97576.86
2018-11-23T15:36:05.486Z,97571.54
2018-11-23T15:38:33.990Z,97570.88
2018-11-23T15:41:02.513Z,97572.02
2018-11-23T15:43:31.049Z,97572.06
2018-11-23T15:45:59.568Z,97568.30
2018-11-23T15:48:28.087Z,97562.68
2018-11-23T15:50:56.659Z,97576.09
2018-11-23T15:53:25.180Z,97571.41
2018-11-23T15:55:53.671Z,97567.34
2018-11-23T15:58:22.175Z,97564.40
2018-11-23T16:00:50.700Z,97566.42
2018-11-23T16:03:19.205Z,97561.08
2018-11-23T16:05:47.723Z,97562.16
2018-11-23T16:08:17.870Z,97555.02
2018-11-23T16:10:46.388Z,97554.67
2018-11-23T16:13:14.928Z,97561.97
2018-11-23T16:15:43.456Z,97557.94
2018-11-23T16:18:12.371Z,97565.08
2018-11-23T16:20:42.949Z,97559.45
2018-11-23T16:23:12.873Z,97558.92
2018-11-23T16:25:41.964Z,97554.11
2018-11-23T16:28:11.048Z,97549.69
2018-11-23T16:30:40.868Z,97546.16
2018-11-23T16:33:11.106Z,97545.27
2018-11-23T16:35:40.392Z,97545.86
2018-11-23T16:38:11.105Z,97549.23
2018-11-23T16:40:41.046Z,97548.14
2018-11-23T16:43:10.680Z,97551.32
2018-11-23T16:45:39.644Z,97548.45
2018-11-23T16:48:09.261Z,97543.48
2018-11-23T16:50:37.745Z,97538.45
2018-11-23T16:53:06.550Z,97537.77
2018-11-23T16:55:35.163Z,97534.48
2018-11-23T16:58:05.928Z,97541.24
2018-11-23T17:00:35.664Z,97531.86
2018-11-23T17:03:05.558Z,97536.81
2018-11-23T17:05:35.581Z,97533.25
2018-11-23T17:08:04.288Z,97530.23
2018-11-23T17:10:32.795Z,97528.64
2018-11-23T17:13:01.291Z,97533.40
2018-11-23T17:15:30.207Z,97524.33
2018-11-23T17:17:58.702Z,97519.90
2018-11-23T17:20:28.613Z,97518.27
2018-11-23T17:22:58.412Z,97512.45
2018-11-23T17:25:27.651Z,97506.95
2018-11-23T17:27:57.339Z,97504.12
2018-11-23T17:30:27.095Z,97502.09
2018-11-23T17:32:55.943Z,97494.70
2018-11-23T17:35:24.567Z,97493.11
2018-11-23T17:37:53.168Z,97488.50
2018-11-23T17:40:23.037Z,97483.77
2018-11-23T17:42:51.545Z,97482.14
2018-11-23T17:45:21.835Z,97462.67
2018-11-23T17:47:50.739Z,97466.01
2018-11-23T17:50:20.642Z,97465.06
2018-11-23T17:52:49.484Z,97457.70
2018-11-23T17:55:17.981Z,97447.54
2018-11-23T17:57:47.110Z,97447.24
2018-11-23T18:00:17.696Z,97446.84
2018-11-23T18:02:46.717Z,97443.41
2018-11-23T18:05:16.136Z,97433.69
2018-11-23T18:07:44.654Z,97432.66
2018-11-23T18:10:15.638Z,97421.64
2018-11-23T18:12:44.656Z,97423.77
2018-11-23T18:15:15.695Z,97418.06
2018-11-23T18:17:44.689Z,97419.69
2018-11-23T18:20:14.414Z,97419.69
2018-11-23T18:22:43.393Z,97418.80
2018-11-23T18:25:20.237Z,97417.91
2018-11-23T18:27:49.073Z,97416.47
2018-11-23T18:30:17.576Z,97404.95
2018-11-23T18:32:46.068Z,97412.00
2018-11-23T18:35:14.596Z,97413.93
2018-11-23T18:37:43.149Z,97413.04
2018-11-23T18:40:13.324Z,97407.98
2018-11-23T18:42:41.830Z,97402.52
2018-11-23T18:45:11.512Z,97398.44
2018-11-23T18:47:40.198Z,97386.39
2018-11-23T18:50:11.854Z,97388.37
2018-11-23T18:52:40.352Z,97374.03
2018-11-23T18:55:09.605Z,97383.46
2018-11-23T18:57:38.105Z,97377.26
2018-11-23T19:00:09.324Z,97373.18
2018-11-23T19:02:37.828Z,97363.25
2018-11-23T19:05:09.189Z,97367.33
2018-11-23T19:07:37.685Z,97360.53
2018-11-23T19:10:09.140Z,97362.45
2018-11-23T19:12:37.645Z,97354.33
2018-11-23T19:15:08.249Z,97344.20
2018-11-23T19:17:36.743Z,97329.52
2018-11-23T19:20:08.923Z,97326.33
2018-11-23T19:22:37.423Z,97329.02
2018-11-23T19:25:06.345Z,97321.27
2018-11-23T19:27:35.157Z,97310.70
2018-11-23T19:30:03.693Z,97315.66
2018-11-23T19:32:32.197Z,97303.26
2018-11-23T19:35:00.704Z,97299.69
2018-11-23T19:37:29.200Z,97289.76
2018-11-23T19:39:57.692Z,97289.76
2018-11-23T19:42:26.205Z,97278.05
2018-11-23T19:44:54.712Z,97274.34
2018-11-23T19:47:23.251Z,97273.98
2018-11-23T19:49:51.764Z,97255.58
2018-11-23T19:52:20.293Z,97251.36
2018-11-23T19:54:48.772Z,97246.39
2018-11-23T19:57:17.284Z,97249.62
2018-11-23T19:59:45.776Z,97262.67
2018-11-23T20:02:14.260Z,97263.46
2018-11-23T20:04:42.764Z,97259.24
2018-11-23T20:07:11.284Z,97257.11
2018-11-23T20:09:40.126Z,97250.55
2018-11-23T20:12:08.341Z,97255.81
2018-11-23T20:14:36.836Z,97250.84
2018-11-23T20:17:05.511Z,97255.31
2018-11-23T20:19:34.033Z,97260.42
2018-11-23T20:22:02.557Z,97280.31
2018-11-23T20:24:31.080Z,97275.00
2018-11-23T20:26:59.584Z,97263.33
2018-11-23T20:29:28.085Z,97263.05
2018-11-23T20:31:56.613Z,97262.45
2018-11-23T20:34:25.113Z,97260.85
2018-11-23T20:36:53.612Z,97254.65
2018-11-23T20:39:22.104Z,97238.12
2018-11-23T20:41:50.603Z,97243.98
2018-11-23T20:44:19.092Z,97237.42
2018-11-23T20:46:47.608Z,97239.66
2018-11-23T20:49:16.133Z,97237.03
2018-11-23T20:51:44.662Z,97236.33
2018-11-23T20:54:13.168Z,97241.79
2018-11-23T20:56:41.700Z,97229.38
2018-11-23T20:59:10.253Z,97226.01
2018-11-23T21:01:38.761Z,97226.54
2018-11-23T21:04:07.309Z,97214.98
2018-11-23T21:06:35.853Z,97208.06
2018-11-23T21:09:06.590Z,97208.92
2018-11-23T21:11:35.086Z,97207.97
2018-11-23T21:14:03.732Z,97206.73
2018-11-23T21:16:32.237Z,97198.04
2018-11-23T21:19:00.719Z,97193.22
2018-11-23T21:21:29.360Z,97196.73
2018-11-23T21:23:57.913Z,97195.98
2018-11-23T21:26:26.440Z,97190.45
2018-11-23T21:28:54.989Z,97194.67
2018-11-23T21:31:23.524Z,97191.30
2018-11-23T21:33:52.079Z,97186.48
2018-11-23T21:36:20.576Z,97178.89
2018-11-23T21:38:49.085Z,97170.20
2018-11-23T21:41:17.733Z,97169.11
2018-11-23T21:43:46.240Z,97167.86
2018-11-23T21:46:14.750Z,97165.91
2018-11-23T21:48:43.248Z,97160.95
2018-11-23T21:51:11.811Z,97154.88
2018-11-23T21:53:40.375Z,97159.99
2018-11-23T21:56:09.425Z,97141.13
2018-11-23T21:58:37.470Z,97142.75
2018-11-23T22:01:06.145Z,97137.92
2018-11-23T22:03:34.678Z,97132.29
2018-11-23T22:06:03.176Z,97131.05
2018-11-23T22:08:31.704Z,97132.29
2018-11-23T22:11:00.204Z,97136.91
2018-11-23T22:13:28.708Z,97139.80
2018-11-23T22:15:57.220Z,97137.47
2018-11-23T22:18:25.725Z,97136.58
2018-11-23T22:20:54.238Z,97137.28
2018-11-23T22:23:22.738Z,97126.71
2018-11-23T22:25:51.247Z,97111.45
2018-11-23T22:28:19.849Z,97122.98
2018-11-23T22:30:48.374Z,97116.09
2018-11-23T22:33:16.916Z,97120.58
2018-11-23T22:35:48.222Z,97117.56
2018-11-23T22:38:14.000Z,97108.09
2018-11-23T22:40:42.514Z,97107.66
2018-11-23T22:43:11.022Z,97098.91
2018-11-23T22:45:39.516Z,97104.31
2018-11-23T22:48:08.020Z,97100.02
2018-11-23T22:50:36.529Z,97109.56
2018-11-23T22:53:05.093Z,97099.34
2018-11-23T22:55:33.595Z,97101.53
2018-11-23T22:58:02.102Z,97104.23
2018-11-23T23:00:38.525Z,97101.05
2018-11-23T23:03:07.131Z,97103.27
2018-11-23T23:05:35.632Z,97108.05
2018-11-23T23:08:04.188Z,97102.50
2018-11-23T23:10:32.702Z,97103.46
2018-11-23T23:13:01.201Z,97094.08
2018-11-23T23:15:29.733Z,97090.80
2018-11-23T23:17:58.225Z,97079.33
2018-11-23T23:20:26.726Z,97116.93
2018-11-23T23:22:55.261Z,97075.67
2018-11-23T23:25:23.756Z,97069.38
2018-11-23T23:27:52.254Z,97074.08
2018-11-23T23:30:20.768Z,97084.15
2018-11-23T23:32:49.626Z,97084.50
2018-11-23T23:35:18.416Z,97092.98
2018-11-23T23:37:46.929Z,97073.96
2018-11-23T23:40:17.169Z,97079.67
2018-11-23T23:42:46.145Z,97076.97
2018-11-23T23:45:16.604Z,97065.66
2018-11-23T23:47:45.092Z,97057.33
2018-11-23T23:50:19.523Z,97049.88
2018-11-23T23:52:48.074Z,97044.41
2018-11-23T23:55:16.591Z,97037.81
2018-11-23T23:57:45.925Z,97022.06
